sensor_id;sensor_type;location;lat;lon;timestamp;temperature;humidity
23114;DHT22;11726;50.122;8.832;2023-01-24T00:00:46;2.10;99.90
23114;DHT22;11726;50.122;8.832;2023-01-24T00:03:12;2.00;99.90
23114;DHT22;11726;50.122;8.832;2023-01-24T00:05:44;2.00;99.90
23114;DHT22;11726;50.122;8.832;2023-01-24T00:08:12;2.10;99.90
23114;DHT22;11726;50.122;8.832;2023-01-24T00:10:40;2.10;99.90
23114;DHT22;11726;50.122;8.832;2023-01-24T00:13:09;2.10;99.90
23114;DHT22;11726;50.122;8.832;2023-01-24T00:15:36;2.10;99.90
23114;DHT22;11726;50.122;8.832;2023-01-24T00:18:03;2.10;99.90
23114;DHT22;11726;50.122;8.832;2023-01-24T00:20:30;2.10;99.90
23114;DHT22;11726;50.122;8.832;2023-01-24T00:22:57;2.10;99.90
23114;DHT22;11726;50.122;8.832;2023-01-24T00:25:23;2.10;99.90
23114;DHT22;11726;50.122;8.832;2023-01-24T00:27:50;2.10;99.90
23114;DHT22;11726;50.122;8.832;2023-01-24T00:30:17;2.10;99.90
23114;DHT22;11726;50.122;8.832;2023-01-24T00:32:43;2.10;99.90
23114;DHT22;11726;50.122;8.832;2023-01-24T00:35:10;2.10;99.90
23114;DHT22;11726;50.122;8.832;2023-01-24T00:37:37;2.10;99.90
23114;DHT22;11726;50.122;8.832;2023-01-24T00:40:04;2.10;99.90
23114;DHT22;11726;50.122;8.832;2023-01-24T00:42:31;2.10;99.90
23114;DHT22;11726;50.122;8.832;2023-01-24T00:44:57;2.10;99.90
23114;DHT22;11726;50.122;8.832;2023-01-24T00:47:24;2.10;99.90
23114;DHT22;11726;50.122;8.832;2023-01-24T00:49:51;2.10;99.90
23114;DHT22;11726;50.122;8.832;2023-01-24T00:52:18;2.10;99.90
23114;DHT22;11726;50.122;8.832;2023-01-24T00:54:45;2.10;99.90
23114;DHT22;11726;50.122;8.832;2023-01-24T00:57:12;2.10;99.90
23114;DHT22;11726;50.122;8.832;2023-01-24T00:59:38;2.10;99.90
23114;DHT22;11726;50.122;8.832;2023-01-24T01:02:05;2.10;99.90
23114;DHT22;11726;50.122;8.832;2023-01-24T01:04:33;2.10;99.90
23114;DHT22;11726;50.122;8.832;2023-01-24T01:07:00;2.10;99.90
23114;DHT22;11726;50.122;8.832;2023-01-24T01:09:27;2.10;99.90
23114;DHT22;11726;50.122;8.832;2023-01-24T01:11:53;2.00;99.90
23114;DHT22;11726;50.122;8.832;2023-01-24T01:14:20;2.00;99.90
23114;DHT22;11726;50.122;8.832;2023-01-24T01:16:47;2.00;99.90
23114;DHT22;11726;50.122;8.832;2023-01-24T01:19:13;2.00;99.90
23114;DHT22;11726;50.122;8.832;2023-01-24T01:21:40;1.90;99.90
23114;DHT22;11726;50.122;8.832;2023-01-24T01:24:10;1.90;99.90
23114;DHT22;11726;50.122;8.832;2023-01-24T01:26:37;1.90;99.90
23114;DHT22;11726;50.122;8.832;2023-01-24T01:29:04;1.80;99.90
23114;DHT22;11726;50.122;8.832;2023-01-24T01:31:31;1.70;99.90
23114;DHT22;11726;50.122;8.832;2023-01-24T01:33:58;1.70;99.90
23114;DHT22;11726;50.122;8.832;2023-01-24T01:36:24;1.80;99.90
23114;DHT22;11726;50.122;8.832;2023-01-24T01:38:51;1.80;99.90
23114;DHT22;11726;50.122;8.832;2023-01-24T01:41:19;1.60;99.90
23114;DHT22;11726;50.122;8.832;2023-01-24T01:43:46;1.60;99.90
23114;DHT22;11726;50.122;8.832;2023-01-24T01:46:44;1.70;99.90
23114;DHT22;11726;50.122;8.832;2023-01-24T01:49:21;1.60;99.90
23114;DHT22;11726;50.122;8.832;2023-01-24T01:51:53;1.60;99.90
23114;DHT22;11726;50.122;8.832;2023-01-24T01:54:26;1.60;99.90
23114;DHT22;11726;50.122;8.832;2023-01-24T01:56:59;1.60;99.90
23114;DHT22;11726;50.122;8.832;2023-01-24T01:59:43;1.50;99.90
23114;DHT22;11726;50.122;8.832;2023-01-24T02:02:13;1.60;99.90
23114;DHT22;11726;50.122;8.832;2023-01-24T02:04:44;1.60;99.90
23114;DHT22;11726;50.122;8.832;2023-01-24T02:07:17;1.60;99.90
23114;DHT22;11726;50.122;8.832;2023-01-24T02:09:48;1.50;99.90
23114;DHT22;11726;50.122;8.832;2023-01-24T02:14:54;1.60;99.90
23114;DHT22;11726;50.122;8.832;2023-01-24T02:17:40;1.70;99.90
23114;DHT22;11726;50.122;8.832;2023-01-24T02:28:05;1.90;99.90
23114;DHT22;11726;50.122;8.832;2023-01-24T02:30:34;2.00;99.90
23114;DHT22;11726;50.122;8.832;2023-01-24T02:33:13;1.90;99.90
23114;DHT22;11726;50.122;8.832;2023-01-24T02:35:40;2.00;99.90
23114;DHT22;11726;50.122;8.832;2023-01-24T02:38:18;2.00;99.90
23114;DHT22;11726;50.122;8.832;2023-01-24T02:40:46;2.10;99.90
23114;DHT22;11726;50.122;8.832;2023-01-24T02:43:17;2.10;99.90
23114;DHT22;11726;50.122;8.832;2023-01-24T02:45:44;2.10;99.90
23114;DHT22;11726;50.122;8.832;2023-01-24T02:48:11;2.20;99.90
23114;DHT22;11726;50.122;8.832;2023-01-24T02:50:38;2.20;99.90
23114;DHT22;11726;50.122;8.832;2023-01-24T02:53:23;2.20;99.90
23114;DHT22;11726;50.122;8.832;2023-01-24T02:56:04;2.30;99.90
23114;DHT22;11726;50.122;8.832;2023-01-24T02:58:50;2.30;99.90
23114;DHT22;11726;50.122;8.832;2023-01-24T03:01:18;2.30;99.90
23114;DHT22;11726;50.122;8.832;2023-01-24T03:03:46;2.30;99.90
23114;DHT22;11726;50.122;8.832;2023-01-24T03:06:15;2.30;99.90
23114;DHT22;11726;50.122;8.832;2023-01-24T03:08:42;2.40;99.90
23114;DHT22;11726;50.122;8.832;2023-01-24T03:11:10;2.40;99.90
23114;DHT22;11726;50.122;8.832;2023-01-24T03:13:38;2.40;99.90
23114;DHT22;11726;50.122;8.832;2023-01-24T03:16:24;2.40;99.90
23114;DHT22;11726;50.122;8.832;2023-01-24T03:19:09;2.40;99.90
23114;DHT22;11726;50.122;8.832;2023-01-24T03:21:55;2.40;99.90
23114;DHT22;11726;50.122;8.832;2023-01-24T03:24:40;2.40;99.90
23114;DHT22;11726;50.122;8.832;2023-01-24T03:27:25;2.40;99.90
23114;DHT22;11726;50.122;8.832;2023-01-24T03:30:11;2.40;99.90
23114;DHT22;11726;50.122;8.832;2023-01-24T03:33:00;2.40;99.90
23114;DHT22;11726;50.122;8.832;2023-01-24T03:35:48;2.40;99.90
23114;DHT22;11726;50.122;8.832;2023-01-24T03:38:21;2.40;99.90
23114;DHT22;11726;50.122;8.832;2023-01-24T03:41:06;2.40;99.90
23114;DHT22;11726;50.122;8.832;2023-01-24T03:43:33;2.50;99.90
23114;DHT22;11726;50.122;8.832;2023-01-24T03:46:00;2.50;99.90
23114;DHT22;11726;50.122;8.832;2023-01-24T03:48:27;2.40;99.90
23114;DHT22;11726;50.122;8.832;2023-01-24T03:51:04;2.40;99.90
23114;DHT22;11726;50.122;8.832;2023-01-24T03:53:50;2.50;99.90
23114;DHT22;11726;50.122;8.832;2023-01-24T03:56:16;2.50;99.90
23114;DHT22;11726;50.122;8.832;2023-01-24T03:58:43;2.50;99.90
23114;DHT22;11726;50.122;8.832;2023-01-24T04:01:10;2.50;99.90
23114;DHT22;11726;50.122;8.832;2023-01-24T04:03:36;2.50;99.90
23114;DHT22;11726;50.122;8.832;2023-01-24T04:06:03;2.50;99.90
23114;DHT22;11726;50.122;8.832;2023-01-24T04:08:30;2.50;99.90
23114;DHT22;11726;50.122;8.832;2023-01-24T04:10:57;2.50;99.90
23114;DHT22;11726;50.122;8.832;2023-01-24T04:13:24;2.50;99.90
23114;DHT22;11726;50.122;8.832;2023-01-24T04:15:51;2.50;99.90
23114;DHT22;11726;50.122;8.832;2023-01-24T04:18:17;2.40;99.90
23114;DHT22;11726;50.122;8.832;2023-01-24T04:20:44;2.40;99.90
23114;DHT22;11726;50.122;8.832;2023-01-24T04:23:11;2.40;99.90
23114;DHT22;11726;50.122;8.832;2023-01-24T04:25:38;2.50;99.90
23114;DHT22;11726;50.122;8.832;2023-01-24T04:28:05;2.50;99.90
23114;DHT22;11726;50.122;8.832;2023-01-24T04:30:32;2.50;99.90
23114;DHT22;11726;50.122;8.832;2023-01-24T04:32:59;2.50;99.90
23114;DHT22;11726;50.122;8.832;2023-01-24T04:35:28;2.50;99.90
23114;DHT22;11726;50.122;8.832;2023-01-24T04:38:00;2.40;99.90
23114;DHT22;11726;50.122;8.832;2023-01-24T04:40:27;2.40;99.90
23114;DHT22;11726;50.122;8.832;2023-01-24T04:42:55;2.50;99.90
23114;DHT22;11726;50.122;8.832;2023-01-24T04:45:23;2.50;99.90
23114;DHT22;11726;50.122;8.832;2023-01-24T04:47:50;2.40;99.90
23114;DHT22;11726;50.122;8.832;2023-01-24T04:50:16;2.50;99.90
23114;DHT22;11726;50.122;8.832;2023-01-24T04:52:43;2.50;99.90
23114;DHT22;11726;50.122;8.832;2023-01-24T04:55:10;2.50;99.90
23114;DHT22;11726;50.122;8.832;2023-01-24T04:57:36;2.50;99.90
23114;DHT22;11726;50.122;8.832;2023-01-24T05:00:04;2.50;99.90
23114;DHT22;11726;50.122;8.832;2023-01-24T05:02:30;2.50;99.90
23114;DHT22;11726;50.122;8.832;2023-01-24T05:04:58;2.60;99.90
23114;DHT22;11726;50.122;8.832;2023-01-24T05:07:25;2.50;99.90
23114;DHT22;11726;50.122;8.832;2023-01-24T05:09:52;2.50;99.90
23114;DHT22;11726;50.122;8.832;2023-01-24T05:12:18;2.60;99.90
23114;DHT22;11726;50.122;8.832;2023-01-24T05:14:45;2.60;99.90
23114;DHT22;11726;50.122;8.832;2023-01-24T05:17:12;2.60;99.90
23114;DHT22;11726;50.122;8.832;2023-01-24T05:19:39;2.60;99.90
23114;DHT22;11726;50.122;8.832;2023-01-24T05:22:05;2.70;99.90
23114;DHT22;11726;50.122;8.832;2023-01-24T05:24:32;2.60;99.90
23114;DHT22;11726;50.122;8.832;2023-01-24T05:26:59;2.60;99.90
23114;DHT22;11726;50.122;8.832;2023-01-24T05:29:25;2.60;99.90
23114;DHT22;11726;50.122;8.832;2023-01-24T05:31:52;2.60;99.90
23114;DHT22;11726;50.122;8.832;2023-01-24T05:34:19;2.70;99.90
23114;DHT22;11726;50.122;8.832;2023-01-24T05:36:46;2.70;99.90
23114;DHT22;11726;50.122;8.832;2023-01-24T05:39:12;2.70;99.90
23114;DHT22;11726;50.122;8.832;2023-01-24T05:41:41;2.70;99.90
23114;DHT22;11726;50.122;8.832;2023-01-24T05:44:07;2.70;99.90
23114;DHT22;11726;50.122;8.832;2023-01-24T05:46:35;2.70;99.90
23114;DHT22;11726;50.122;8.832;2023-01-24T05:49:02;2.70;99.90
23114;DHT22;11726;50.122;8.832;2023-01-24T05:51:28;2.80;99.90
23114;DHT22;11726;50.122;8.832;2023-01-24T05:53:55;2.90;99.90
23114;DHT22;11726;50.122;8.832;2023-01-24T05:56:22;2.90;99.90
23114;DHT22;11726;50.122;8.832;2023-01-24T05:58:48;3.00;99.90
23114;DHT22;11726;50.122;8.832;2023-01-24T06:01:20;2.90;99.90
23114;DHT22;11726;50.122;8.832;2023-01-24T06:03:51;2.90;99.90
23114;DHT22;11726;50.122;8.832;2023-01-24T06:06:20;2.90;99.90
23114;DHT22;11726;50.122;8.832;2023-01-24T06:08:48;2.80;99.90
23114;DHT22;11726;50.122;8.832;2023-01-24T06:11:33;2.90;99.90
23114;DHT22;11726;50.122;8.832;2023-01-24T06:14:00;2.90;99.90
23114;DHT22;11726;50.122;8.832;2023-01-24T06:16:27;2.90;99.90
23114;DHT22;11726;50.122;8.832;2023-01-24T06:18:54;2.80;99.90
23114;DHT22;11726;50.122;8.832;2023-01-24T06:21:36;2.80;99.90
23114;DHT22;11726;50.122;8.832;2023-01-24T06:24:10;2.80;99.90
23114;DHT22;11726;50.122;8.832;2023-01-24T06:26:40;2.80;99.90
23114;DHT22;11726;50.122;8.832;2023-01-24T06:29:09;2.80;99.90
23114;DHT22;11726;50.122;8.832;2023-01-24T06:40:10;2.80;99.90
23114;DHT22;11726;50.122;8.832;2023-01-24T06:42:37;2.80;99.90
23114;DHT22;11726;50.122;8.832;2023-01-24T06:45:05;2.80;99.90
23114;DHT22;11726;50.122;8.832;2023-01-24T06:47:33;2.80;99.90
23114;DHT22;11726;50.122;8.832;2023-01-24T06:49:59;2.80;99.90
23114;DHT22;11726;50.122;8.832;2023-01-24T06:52:27;2.80;99.90
23114;DHT22;11726;50.122;8.832;2023-01-24T06:54:54;2.80;99.90
23114;DHT22;11726;50.122;8.832;2023-01-24T06:57:20;2.90;99.90
23114;DHT22;11726;50.122;8.832;2023-01-24T06:59:47;2.90;99.90
23114;DHT22;11726;50.122;8.832;2023-01-24T07:02:15;2.90;99.90
23114;DHT22;11726;50.122;8.832;2023-01-24T07:04:42;2.90;99.90
23114;DHT22;11726;50.122;8.832;2023-01-24T07:07:09;2.80;99.90
23114;DHT22;11726;50.122;8.832;2023-01-24T07:09:35;2.80;99.90
23114;DHT22;11726;50.122;8.832;2023-01-24T07:12:02;2.80;99.90
23114;DHT22;11726;50.122;8.832;2023-01-24T07:14:29;2.80;99.90
23114;DHT22;11726;50.122;8.832;2023-01-24T07:16:56;2.80;99.90
23114;DHT22;11726;50.122;8.832;2023-01-24T07:19:23;2.90;99.90
23114;DHT22;11726;50.122;8.832;2023-01-24T07:21:53;2.90;99.90
23114;DHT22;11726;50.122;8.832;2023-01-24T07:24:25;2.90;99.90
23114;DHT22;11726;50.122;8.832;2023-01-24T07:26:53;2.80;99.90
23114;DHT22;11726;50.122;8.832;2023-01-24T07:29:20;2.80;99.90
23114;DHT22;11726;50.122;8.832;2023-01-24T07:31:49;2.90;99.90
23114;DHT22;11726;50.122;8.832;2023-01-24T07:34:17;2.90;99.90
23114;DHT22;11726;50.122;8.832;2023-01-24T07:36:47;2.90;99.90
23114;DHT22;11726;50.122;8.832;2023-01-24T07:39:14;2.90;99.90
23114;DHT22;11726;50.122;8.832;2023-01-24T07:41:42;2.90;99.90
23114;DHT22;11726;50.122;8.832;2023-01-24T07:44:10;2.90;99.90
23114;DHT22;11726;50.122;8.832;2023-01-24T07:46:37;2.90;99.90
23114;DHT22;11726;50.122;8.832;2023-01-24T07:49:03;3.00;99.90
23114;DHT22;11726;50.122;8.832;2023-01-24T07:51:30;3.00;99.90
23114;DHT22;11726;50.122;8.832;2023-01-24T07:53:57;3.00;99.90
23114;DHT22;11726;50.122;8.832;2023-01-24T07:56:24;3.00;99.90
23114;DHT22;11726;50.122;8.832;2023-01-24T07:58:53;3.00;99.90
23114;DHT22;11726;50.122;8.832;2023-01-24T08:01:21;3.00;99.90
23114;DHT22;11726;50.122;8.832;2023-01-24T08:03:48;3.00;99.90
23114;DHT22;11726;50.122;8.832;2023-01-24T08:06:15;3.10;99.90
23114;DHT22;11726;50.122;8.832;2023-01-24T08:08:43;3.10;99.90
23114;DHT22;11726;50.122;8.832;2023-01-24T08:11:11;3.10;99.90
23114;DHT22;11726;50.122;8.832;2023-01-24T08:13:40;3.10;99.90
23114;DHT22;11726;50.122;8.832;2023-01-24T08:16:07;3.10;99.90
23114;DHT22;11726;50.122;8.832;2023-01-24T08:18:37;3.10;99.90
23114;DHT22;11726;50.122;8.832;2023-01-24T08:21:04;3.10;99.90
23114;DHT22;11726;50.122;8.832;2023-01-24T08:23:32;3.10;99.90
23114;DHT22;11726;50.122;8.832;2023-01-24T08:26:00;3.10;99.90
23114;DHT22;11726;50.122;8.832;2023-01-24T08:28:27;3.10;99.90
23114;DHT22;11726;50.122;8.832;2023-01-24T08:30:56;3.10;99.90
23114;DHT22;11726;50.122;8.832;2023-01-24T08:33:23;3.10;99.90
23114;DHT22;11726;50.122;8.832;2023-01-24T08:35:49;3.20;99.90
23114;DHT22;11726;50.122;8.832;2023-01-24T08:38:16;3.20;99.90
23114;DHT22;11726;50.122;8.832;2023-01-24T08:40:44;3.20;99.90
23114;DHT22;11726;50.122;8.832;2023-01-24T08:43:16;3.20;99.90
23114;DHT22;11726;50.122;8.832;2023-01-24T08:45:43;3.30;99.90
23114;DHT22;11726;50.122;8.832;2023-01-24T08:48:09;3.30;99.90
23114;DHT22;11726;50.122;8.832;2023-01-24T08:50:36;3.30;99.90
23114;DHT22;11726;50.122;8.832;2023-01-24T08:53:03;3.30;99.90
23114;DHT22;11726;50.122;8.832;2023-01-24T08:55:30;3.30;99.90
23114;DHT22;11726;50.122;8.832;2023-01-24T08:58:03;3.30;99.90
23114;DHT22;11726;50.122;8.832;2023-01-24T09:00:31;3.40;99.90
23114;DHT22;11726;50.122;8.832;2023-01-24T09:02:58;3.40;99.90
23114;DHT22;11726;50.122;8.832;2023-01-24T09:05:28;3.40;99.90
23114;DHT22;11726;50.122;8.832;2023-01-24T09:07:55;3.40;99.90
23114;DHT22;11726;50.122;8.832;2023-01-24T09:10:22;3.40;99.90
23114;DHT22;11726;50.122;8.832;2023-01-24T09:12:48;3.40;99.90
23114;DHT22;11726;50.122;8.832;2023-01-24T09:15:15;3.40;99.90
23114;DHT22;11726;50.122;8.832;2023-01-24T09:17:42;3.40;99.90
23114;DHT22;11726;50.122;8.832;2023-01-24T09:20:09;3.50;99.90
23114;DHT22;11726;50.122;8.832;2023-01-24T09:22:36;3.40;99.90
23114;DHT22;11726;50.122;8.832;2023-01-24T09:25:03;3.40;99.90
23114;DHT22;11726;50.122;8.832;2023-01-24T09:27:30;3.50;99.90
23114;DHT22;11726;50.122;8.832;2023-01-24T09:29:57;3.50;99.90
23114;DHT22;11726;50.122;8.832;2023-01-24T09:32:23;3.40;99.90
23114;DHT22;11726;50.122;8.832;2023-01-24T09:34:50;3.50;99.90
23114;DHT22;11726;50.122;8.832;2023-01-24T09:37:21;3.50;99.90
23114;DHT22;11726;50.122;8.832;2023-01-24T09:39:48;3.60;99.90
23114;DHT22;11726;50.122;8.832;2023-01-24T09:45:17;3.60;99.90
23114;DHT22;11726;50.122;8.832;2023-01-24T09:47:58;3.60;99.90
23114;DHT22;11726;50.122;8.832;2023-01-24T09:50:37;3.60;99.90
23114;DHT22;11726;50.122;8.832;2023-01-24T09:53:05;3.60;99.90
23114;DHT22;11726;50.122;8.832;2023-01-24T09:55:40;3.60;99.90
23114;DHT22;11726;50.122;8.832;2023-01-24T09:58:31;3.70;99.90
23114;DHT22;11726;50.122;8.832;2023-01-24T10:01:10;3.70;99.90
23114;DHT22;11726;50.122;8.832;2023-01-24T10:03:38;3.70;99.90
23114;DHT22;11726;50.122;8.832;2023-01-24T10:06:15;3.80;99.90
23114;DHT22;11726;50.122;8.832;2023-01-24T10:12:00;3.70;99.90
23114;DHT22;11726;50.122;8.832;2023-01-24T10:17:57;3.80;99.90
23114;DHT22;11726;50.122;8.832;2023-01-24T10:23:10;3.80;99.90
23114;DHT22;11726;50.122;8.832;2023-01-24T10:25:48;3.80;99.90
23114;DHT22;11726;50.122;8.832;2023-01-24T10:28:30;3.80;99.90
23114;DHT22;11726;50.122;8.832;2023-01-24T10:31:09;3.80;99.90
23114;DHT22;11726;50.122;8.832;2023-01-24T10:33:44;3.80;99.90
23114;DHT22;11726;50.122;8.832;2023-01-24T10:36:36;3.80;99.90
23114;DHT22;11726;50.122;8.832;2023-01-24T10:39:02;3.80;99.90
23114;DHT22;11726;50.122;8.832;2023-01-24T10:41:31;3.90;99.90
23114;DHT22;11726;50.122;8.832;2023-01-24T10:44:19;3.80;99.90
23114;DHT22;11726;50.122;8.832;2023-01-24T10:49:24;4.00;99.90
23114;DHT22;11726;50.122;8.832;2023-01-24T10:52:14;3.90;99.90
23114;DHT22;11726;50.122;8.832;2023-01-24T10:54:52;3.90;99.90
23114;DHT22;11726;50.122;8.832;2023-01-24T10:57:33;4.00;99.90
23114;DHT22;11726;50.122;8.832;2023-01-24T11:00:18;4.00;99.90
23114;DHT22;11726;50.122;8.832;2023-01-24T11:02:48;3.90;99.90
23114;DHT22;11726;50.122;8.832;2023-01-24T11:05:17;4.00;99.90
23114;DHT22;11726;50.122;8.832;2023-01-24T11:07:59;4.00;99.90
23114;DHT22;11726;50.122;8.832;2023-01-24T11:10:30;3.90;99.90
23114;DHT22;11726;50.122;8.832;2023-01-24T11:12:58;3.90;99.90
23114;DHT22;11726;50.122;8.832;2023-01-24T11:15:31;3.90;99.90
23114;DHT22;11726;50.122;8.832;2023-01-24T11:18:06;4.00;99.90
23114;DHT22;11726;50.122;8.832;2023-01-24T11:20:35;4.00;99.90
23114;DHT22;11726;50.122;8.832;2023-01-24T11:23:03;4.00;99.90
23114;DHT22;11726;50.122;8.832;2023-01-24T11:25:30;4.00;99.90
23114;DHT22;11726;50.122;8.832;2023-01-24T11:27:57;4.00;99.90
23114;DHT22;11726;50.122;8.832;2023-01-24T11:30:26;4.00;99.90
23114;DHT22;11726;50.122;8.832;2023-01-24T11:35:50;4.10;99.90
23114;DHT22;11726;50.122;8.832;2023-01-24T11:38:22;4.10;99.90
23114;DHT22;11726;50.122;8.832;2023-01-24T11:46:30;4.00;99.90
23114;DHT22;11726;50.122;8.832;2023-01-24T11:51:53;4.20;99.90
23114;DHT22;11726;50.122;8.832;2023-01-24T12:00:30;4.30;99.90
23114;DHT22;11726;50.122;8.832;2023-01-24T12:03:09;4.20;99.90
23114;DHT22;11726;50.122;8.832;2023-01-24T12:05:59;4.10;99.90
23114;DHT22;11726;50.122;8.832;2023-01-24T12:23:07;4.10;99.90
23114;DHT22;11726;50.122;8.832;2023-01-24T12:25:39;4.10;99.90
23114;DHT22;11726;50.122;8.832;2023-01-24T12:28:13;4.10;99.90
23114;DHT22;11726;50.122;8.832;2023-01-24T12:30:47;4.10;99.90
23114;DHT22;11726;50.122;8.832;2023-01-24T12:33:31;4.20;99.90
23114;DHT22;11726;50.122;8.832;2023-01-24T12:39:18;4.20;99.90
23114;DHT22;11726;50.122;8.832;2023-01-24T12:41:51;4.10;99.90
23114;DHT22;11726;50.122;8.832;2023-01-24T12:44:33;4.20;99.90
23114;DHT22;11726;50.122;8.832;2023-01-24T12:47:31;4.20;99.90
23114;DHT22;11726;50.122;8.832;2023-01-24T12:50:24;4.20;99.90
23114;DHT22;11726;50.122;8.832;2023-01-24T12:53:14;4.20;99.90
23114;DHT22;11726;50.122;8.832;2023-01-24T12:58:39;4.20;99.90
23114;DHT22;11726;50.122;8.832;2023-01-24T13:07:16;4.10;99.90
23114;DHT22;11726;50.122;8.832;2023-01-24T13:09:55;4.10;99.90
23114;DHT22;11726;50.122;8.832;2023-01-24T13:12:26;4.20;99.90
23114;DHT22;11726;50.122;8.832;2023-01-24T13:14:58;4.30;99.90
23114;DHT22;11726;50.122;8.832;2023-01-24T13:20:39;4.10;99.90
23114;DHT22;11726;50.122;8.832;2023-01-24T13:26:14;4.10;99.90
23114;DHT22;11726;50.122;8.832;2023-01-24T13:31:29;4.20;99.90
23114;DHT22;11726;50.122;8.832;2023-01-24T13:34:00;4.20;99.90
23114;DHT22;11726;50.122;8.832;2023-01-24T13:36:32;4.20;99.90
23114;DHT22;11726;50.122;8.832;2023-01-24T13:39:00;4.10;99.90
23114;DHT22;11726;50.122;8.832;2023-01-24T13:41:34;4.10;99.90
23114;DHT22;11726;50.122;8.832;2023-01-24T13:51:58;4.10;99.90
23114;DHT22;11726;50.122;8.832;2023-01-24T13:57:23;4.10;99.90
23114;DHT22;11726;50.122;8.832;2023-01-24T14:02:59;4.10;99.90
23114;DHT22;11726;50.122;8.832;2023-01-24T14:08:01;4.10;99.90
23114;DHT22;11726;50.122;8.832;2023-01-24T14:10:43;4.10;99.90
23114;DHT22;11726;50.122;8.832;2023-01-24T14:13:42;4.10;99.90
23114;DHT22;11726;50.122;8.832;2023-01-24T14:19:22;4.10;99.90
23114;DHT22;11726;50.122;8.832;2023-01-24T14:21:53;4.00;99.90
23114;DHT22;11726;50.122;8.832;2023-01-24T14:24:33;4.00;99.90
23114;DHT22;11726;50.122;8.832;2023-01-24T14:27:27;4.10;99.90
23114;DHT22;11726;50.122;8.832;2023-01-24T14:32:49;4.00;99.90
23114;DHT22;11726;50.122;8.832;2023-01-24T14:37:45;4.10;99.90
23114;DHT22;11726;50.122;8.832;2023-01-24T14:40:21;4.10;99.90
23114;DHT22;11726;50.122;8.832;2023-01-24T14:42:50;4.10;99.90
23114;DHT22;11726;50.122;8.832;2023-01-24T14:45:21;4.00;99.90
23114;DHT22;11726;50.122;8.832;2023-01-24T14:47:49;4.00;99.90
23114;DHT22;11726;50.122;8.832;2023-01-24T14:50:31;4.00;99.90
23114;DHT22;11726;50.122;8.832;2023-01-24T14:53:01;4.00;99.90
23114;DHT22;11726;50.122;8.832;2023-01-24T14:55:38;4.00;99.90
23114;DHT22;11726;50.122;8.832;2023-01-24T14:58:18;4.00;99.90
23114;DHT22;11726;50.122;8.832;2023-01-24T15:00:46;4.00;99.90
23114;DHT22;11726;50.122;8.832;2023-01-24T15:03:33;4.00;99.90
23114;DHT22;11726;50.122;8.832;2023-01-24T15:08:29;4.00;99.90
23114;DHT22;11726;50.122;8.832;2023-01-24T15:11:10;3.90;99.90
23114;DHT22;11726;50.122;8.832;2023-01-24T15:14:18;3.90;99.90
23114;DHT22;11726;50.122;8.832;2023-01-24T15:16:51;3.90;99.90
23114;DHT22;11726;50.122;8.832;2023-01-24T15:19:25;3.90;99.90
23114;DHT22;11726;50.122;8.832;2023-01-24T15:21:54;3.90;99.90
23114;DHT22;11726;50.122;8.832;2023-01-24T15:26:49;3.90;99.90
23114;DHT22;11726;50.122;8.832;2023-01-24T15:29:40;3.90;99.90
23114;DHT22;11726;50.122;8.832;2023-01-24T15:34:46;3.90;99.90
23114;DHT22;11726;50.122;8.832;2023-01-24T15:37:13;3.80;99.90
23114;DHT22;11726;50.122;8.832;2023-01-24T15:39:41;3.80;99.90
23114;DHT22;11726;50.122;8.832;2023-01-24T15:42:14;3.80;99.90
23114;DHT22;11726;50.122;8.832;2023-01-24T15:45:01;3.80;99.90
23114;DHT22;11726;50.122;8.832;2023-01-24T15:47:28;3.80;99.90
23114;DHT22;11726;50.122;8.832;2023-01-24T15:50:24;3.70;99.90
23114;DHT22;11726;50.122;8.832;2023-01-24T15:53:23;3.80;99.90
23114;DHT22;11726;50.122;8.832;2023-01-24T15:55:51;3.70;99.90
23114;DHT22;11726;50.122;8.832;2023-01-24T15:58:18;3.80;99.90
23114;DHT22;11726;50.122;8.832;2023-01-24T16:00:57;3.70;99.90
23114;DHT22;11726;50.122;8.832;2023-01-24T16:03:24;3.70;99.90
23114;DHT22;11726;50.122;8.832;2023-01-24T16:05:51;3.70;99.90
23114;DHT22;11726;50.122;8.832;2023-01-24T16:08:18;3.70;99.90
23114;DHT22;11726;50.122;8.832;2023-01-24T16:10:46;3.70;99.90
23114;DHT22;11726;50.122;8.832;2023-01-24T16:13:38;3.70;99.90
23114;DHT22;11726;50.122;8.832;2023-01-24T16:16:09;3.70;99.90
23114;DHT22;11726;50.122;8.832;2023-01-24T16:18:37;3.70;99.90
23114;DHT22;11726;50.122;8.832;2023-01-24T16:21:03;3.70;99.90
23114;DHT22;11726;50.122;8.832;2023-01-24T16:23:30;3.70;99.90
23114;DHT22;11726;50.122;8.832;2023-01-24T16:25:57;3.80;99.90
23114;DHT22;11726;50.122;8.832;2023-01-24T16:28:26;3.70;99.90
23114;DHT22;11726;50.122;8.832;2023-01-24T16:30:59;3.70;99.90
23114;DHT22;11726;50.122;8.832;2023-01-24T16:33:26;3.60;99.90
23114;DHT22;11726;50.122;8.832;2023-01-24T16:35:53;3.70;99.90
23114;DHT22;11726;50.122;8.832;2023-01-24T16:38:19;3.80;99.90
23114;DHT22;11726;50.122;8.832;2023-01-24T16:40:46;3.80;99.90
23114;DHT22;11726;50.122;8.832;2023-01-24T16:43:19;3.70;99.90
23114;DHT22;11726;50.122;8.832;2023-01-24T16:45:47;3.70;99.90
23114;DHT22;11726;50.122;8.832;2023-01-24T16:48:15;3.60;99.90
23114;DHT22;11726;50.122;8.832;2023-01-24T16:50:43;3.70;99.90
23114;DHT22;11726;50.122;8.832;2023-01-24T16:53:12;3.70;99.90
23114;DHT22;11726;50.122;8.832;2023-01-24T16:55:39;3.60;99.90
23114;DHT22;11726;50.122;8.832;2023-01-24T16:58:07;3.70;99.90
23114;DHT22;11726;50.122;8.832;2023-01-24T17:00:34;3.60;99.90
23114;DHT22;11726;50.122;8.832;2023-01-24T17:03:01;3.60;99.90
23114;DHT22;11726;50.122;8.832;2023-01-24T17:05:29;3.60;99.90
23114;DHT22;11726;50.122;8.832;2023-01-24T17:07:57;3.60;99.90
23114;DHT22;11726;50.122;8.832;2023-01-24T17:10:24;3.60;99.90
23114;DHT22;11726;50.122;8.832;2023-01-24T17:12:52;3.60;99.90
23114;DHT22;11726;50.122;8.832;2023-01-24T17:15:18;3.60;99.90
23114;DHT22;11726;50.122;8.832;2023-01-24T17:17:45;3.50;99.90
23114;DHT22;11726;50.122;8.832;2023-01-24T17:20:12;3.60;99.90
23114;DHT22;11726;50.122;8.832;2023-01-24T17:22:39;3.60;99.90
23114;DHT22;11726;50.122;8.832;2023-01-24T17:25:06;3.60;99.90
23114;DHT22;11726;50.122;8.832;2023-01-24T17:27:33;3.50;99.90
23114;DHT22;11726;50.122;8.832;2023-01-24T17:30:00;3.60;99.90
23114;DHT22;11726;50.122;8.832;2023-01-24T17:32:27;3.70;99.90
23114;DHT22;11726;50.122;8.832;2023-01-24T17:34:53;3.60;99.90
23114;DHT22;11726;50.122;8.832;2023-01-24T17:37:20;3.60;99.90
23114;DHT22;11726;50.122;8.832;2023-01-24T17:39:47;3.60;99.90
23114;DHT22;11726;50.122;8.832;2023-01-24T17:42:15;3.50;99.90
23114;DHT22;11726;50.122;8.832;2023-01-24T17:44:42;3.50;99.90
23114;DHT22;11726;50.122;8.832;2023-01-24T17:47:09;3.60;99.90
23114;DHT22;11726;50.122;8.832;2023-01-24T17:49:36;3.70;99.90
23114;DHT22;11726;50.122;8.832;2023-01-24T17:52:03;3.70;99.90
23114;DHT22;11726;50.122;8.832;2023-01-24T17:54:30;3.60;99.90
23114;DHT22;11726;50.122;8.832;2023-01-24T17:56:57;3.60;99.90
23114;DHT22;11726;50.122;8.832;2023-01-24T17:59:23;3.50;99.90
23114;DHT22;11726;50.122;8.832;2023-01-24T18:01:50;3.50;99.90
23114;DHT22;11726;50.122;8.832;2023-01-24T18:04:17;3.50;99.90
23114;DHT22;11726;50.122;8.832;2023-01-24T18:06:43;3.50;99.90